ADDS METAR Data INFO
IDs: Format: Raw Decoded Include TAF

Data at: 0425 UTC 26 May 2018

KOZA 260415Z AUTO 19013KT 10SM CLR 27/15 A2995 RMK AO2
KOZA 260355Z AUTO 17007KT 10SM CLR 26/15 A2995 RMK AO2
KOZA 260335Z AUTO 15006KT 10SM CLR 27/15 A2995 RMK AO2
KOZA 260315Z AUTO 17006KT 10SM CLR 27/15 A2994 RMK AO2
KOZA 260255Z AUTO 21013KT 10SM CLR 28/14 A2992 RMK AO2
KOZA 260235Z AUTO 20010G17KT 10SM CLR 28/14 A2992 RMK AO2
KOZA 260215Z AUTO 18007G14KT 10SM CLR 30/13 A2992 RMK AO2
KOZA 260155Z AUTO 17007G16KT 10SM CLR 30/13 A2992 RMK AO2
KOZA 260135Z AUTO 18008G18KT 10SM CLR 31/13 A2992 RMK AO2
KOZA 260115Z AUTO 18008G24KT 10SM CLR 32/13 A2992 RMK AO2
KOZA 260055Z AUTO 17010G14KT 10SM CLR 32/12 A2991 RMK AO2
KOZA 260035Z AUTO 18011G19KT 10SM CLR 32/12 A2992 RMK AO2
KOZA 260015Z AUTO 18009KT 140V200 10SM CLR 33/12 A2992 RMK AO2
KOZA 252355Z AUTO 18010KT 10SM CLR 34/12 A2992 RMK AO2
KOZA 252335Z AUTO 16010G14KT 130V190 10SM CLR 34/12 A2992 RMK AO2
KOZA 252315Z AUTO 17012G16KT 10SM CLR 35/13 A2992 RMK AO2
KOZA 252255Z AUTO 17012G15KT 10SM CLR 35/13 A2993 RMK AO2
KOZA 252235Z AUTO 20007KT 10SM CLR 35/13 A2994 RMK AO2
KOZA 252215Z AUTO 18010G15KT 10SM CLR 35/13 A2994 RMK AO2
KOZA 252155Z AUTO 23007G15KT 10SM CLR 35/13 A2995 RMK AO2
KOZA 252135Z AUTO 19009G16KT 160V220 10SM CLR 34/13 A2996 RMK AO2
KOZA 252115Z AUTO 18008G24KT 10SM CLR 35/13 A2997 RMK AO2
KOZA 252055Z AUTO 19011G22KT 10SM CLR 34/14 A2997 RMK AO2
KOZA 252035Z AUTO 20011G22KT 10SM CLR 34/14 A2998 RMK AO2
KOZA 252015Z AUTO 20012G23KT 170V230 10SM CLR 33/15 A2998 RMK AO2
KOZA 251955Z AUTO 20014G21KT 10SM CLR 33/15 A2999 RMK AO2
KOZA 251935Z AUTO 20014G20KT 10SM CLR 33/15 A3000 RMK AO2
KOZA 251915Z AUTO 20015G20KT 10SM CLR 33/15 A3001 RMK AO2
KOZA 251855Z AUTO 20014G20KT 10SM CLR 33/15 A3002 RMK AO2
KOZA 251835Z AUTO 18012G21KT 160V220 10SM CLR 32/16 A3003 RMK AO2
KOZA 251815Z AUTO 19013G21KT 10SM CLR 32/16 A3004 RMK AO2
KOZA 251755Z AUTO 20013G21KT 7SM CLR 31/16 A3004 RMK AO2
KOZA 251735Z AUTO 19014G18KT 10SM CLR 31/17 A3005 RMK AO2
KOZA 251715Z AUTO 20013G17KT 10SM CLR 31/17 A3005 RMK AO2
KOZA 251655Z AUTO 18013G19KT 7SM CLR 30/18 A3006 RMK AO2
KOZA 251635Z AUTO 19013G18KT 10SM CLR 30/18 A3006 RMK AO2
KOZA 251615Z AUTO 18012G17KT 10SM CLR 29/18 A3006 RMK AO2
KOZA 251555Z AUTO 18015KT 10SM CLR 28/18 A3007 RMK AO2
KOZA 251535Z AUTO 18013KT 7SM CLR 27/18 A3007 RMK AO2
KOZA 251515Z AUTO 19011KT 10SM CLR 27/19 A3007 RMK AO2
KOZA 251455Z AUTO 19010G15KT 10SM SCT014 25/19 A3008 RMK AO2
KOZA 251435Z AUTO 18011G22KT 10SM SCT012 25/19 A3008 RMK AO2
KOZA 251415Z AUTO 18011G23KT 7SM BKN012 23/19 A3008 RMK AO2
KOZA 251355Z AUTO 19015G24KT 7SM OVC010 23/19 A3008 RMK AO2
KOZA 251335Z AUTO 19013G21KT 10SM OVC010 22/19 A3008 RMK AO2
KOZA 251315Z AUTO 19009G16KT 7SM BKN010 22/18 A3007 RMK AO2
KOZA 251255Z AUTO 19007KT 10SM CLR 22/18 A3007 RMK AO2
KOZA 251235Z AUTO 18005KT 10SM CLR 21/18 A3007 RMK AO2
KOZA 251215Z AUTO 15004KT 10SM CLR 18/16 A3005 RMK AO2
KOZA 251155Z AUTO 00000KT 10SM CLR 17/15 A3005 RMK AO2
KOZA 251135Z AUTO 00000KT 7SM CLR 18/16 A3004 RMK AO2
KOZA 251115Z AUTO 00000KT 10SM CLR 18/15 A3003 RMK AO2
KOZA 251055Z AUTO 00000KT 10SM CLR 19/15 A3003 RMK AO2
KOZA 251035Z AUTO 00000KT 10SM CLR 20/15 A3004 RMK AO2
KOZA 251015Z AUTO 18003KT 10SM CLR 20/16 A3004 RMK AO2
KOZA 250955Z AUTO 19008KT 10SM CLR 21/16 A3004 RMK AO2
KOZA 250935Z AUTO 18006KT 10SM CLR 21/16 A3003 RMK AO2
KOZA 250915Z AUTO 18007KT 10SM CLR 20/15 A3003 RMK AO2
KOZA 250855Z AUTO 18004KT 10SM CLR 18/15 A3003 RMK AO2
KOZA 250835Z AUTO 21003KT 7SM CLR 19/15 A3004 RMK AO2
KOZA 250815Z AUTO 00000KT 10SM CLR 19/15 A3005 RMK AO2
KOZA 250755Z AUTO 00000KT 10SM CLR 19/15 A3005 RMK AO2
KOZA 250735Z AUTO 22003KT 10SM CLR 20/16 A3005 RMK AO2
KOZA 250715Z AUTO 00000KT 10SM CLR 20/16 A3006 RMK AO2
KOZA 250655Z AUTO 20008KT 10SM CLR 21/16 A3007 RMK AO2
KOZA 250635Z AUTO 20007KT 10SM CLR 21/16 A3007 RMK AO2
KOZA 250615Z AUTO 20010KT 7SM CLR 22/16 A3008 RMK AO2
KOZA 250555Z AUTO 20010KT 10SM CLR 22/16 A3009 RMK AO2
KOZA 250535Z AUTO 19009KT 10SM CLR 23/16 A3009 RMK AO2
KOZA 250515Z AUTO 20010KT 10SM CLR 23/16 A3009 RMK AO2
KOZA 250455Z AUTO 20010KT 10SM CLR 23/16 A3010 RMK AO2
KOZA 250435Z AUTO 20010KT 10SM CLR 23/16 A3010 RMK AO2
KOZA 250415Z AUTO 20008KT 10SM CLR 23/16 A3010 RMK AO2
KOZA 250355Z AUTO 20010KT 10SM CLR 24/16 A3009 RMK AO2
KOZA 250335Z AUTO 20011KT 10SM CLR 25/16 A3009 RMK AO2
KOZA 250315Z AUTO 19006KT 10SM CLR 25/16 A3008 RMK AO2
KOZA 250255Z AUTO 21010KT 10SM CLR 25/16 A3008 RMK AO2
KOZA 250235Z AUTO 22004KT 10SM CLR 26/16 A3008 RMK AO2
KOZA 250215Z AUTO 21008G14KT 10SM CLR 27/16 A3006 RMK AO2
KOZA 250155Z AUTO 18006KT 10SM CLR 27/15 A3005 RMK AO2
KOZA 250135Z AUTO 18005G15KT 10SM CLR 28/15 A3004 RMK AO2
KOZA 250115Z AUTO 20013G17KT 10SM CLR 29/15 A3005 RMK AO2
KOZA 250055Z AUTO 20014G18KT 7SM CLR 29/15 A3004 RMK AO2
KOZA 250035Z AUTO 17006G18KT 10SM CLR 30/15 A3004 RMK AO2
KOZA 250015Z AUTO 17007G18KT 10SM CLR 30/14 A3004 RMK AO2
KOZA 242355Z AUTO 17006G16KT 10SM CLR 30/14 A3004 RMK AO2
KOZA 242335Z AUTO 16011G16KT 10SM SCT060 32/15 A3003 RMK AO2
KOZA 242315Z AUTO 17007G20KT 10SM CLR 32/15 A3003 RMK AO2
KOZA 242255Z AUTO 17011G16KT 10SM CLR 31/15 A3004 RMK AO2
KOZA 242235Z AUTO 17004G19KT 10SM CLR 32/15 A3005 RMK AO2
KOZA 242215Z AUTO 16009KT 10SM SCT055 31/14 A3006 RMK AO2
KOZA 242155Z AUTO 16009G15KT 10SM SCT065 32/15 A3007 RMK AO2
KOZA 242135Z AUTO 19009G20KT 10SM SCT055 SCT065 32/15 A3007 RMK AO2
KOZA 242115Z AUTO 19013G19KT 10SM CLR 32/15 A3008 RMK AO2
KOZA 242055Z AUTO 18012G20KT 150V210 10SM CLR 31/15 A3009 RMK AO2
KOZA 242035Z AUTO 19015G21KT 10SM CLR 31/15 A3009 RMK AO2
KOZA 242015Z AUTO 17010G18KT 10SM SCT048 SCT070 31/16 A3010 RMK AO2
KOZA 241955Z AUTO 19011G17KT 10SM SCT048 31/16 A3011 RMK AO2
KOZA 241935Z AUTO 15009G17KT 7SM SCT048 31/16 A3011 RMK AO2
KOZA 241915Z AUTO 19012KT 10SM SCT041 30/16 A3012 RMK AO2
KOZA 241855Z AUTO 19012G18KT 10SM SCT039 30/16 A3013 RMK AO2
KOZA 241835Z AUTO 17014G21KT 7SM SCT037 30/16 A3014 RMK AO2
KOZA 241815Z AUTO 18011G16KT 10SM SCT033 BKN039 BKN047 29/17 A3015 RMK AO2
KOZA 241755Z AUTO 19010KT 10SM SCT032 BKN040 BKN045 28/17 A3016 RMK AO2
KOZA 241735Z AUTO 19013G18KT 10SM BKN030 OVC038 28/17 A3016 RMK AO2
KOZA 241715Z AUTO 16012G19KT 130V190 10SM BKN028 OVC036 27/18 A3016 RMK AO2
KOZA 241655Z AUTO 18014KT 10SM SCT028 OVC034 27/17 A3016 RMK AO2
KOZA 241635Z AUTO 18013G23KT 7SM SCT025 BKN031 26/17 A3016 RMK AO2